^^
Datos históricos de la estación: Murcia-Puente Tocinos
Diario Informe para Agosto 19, 2019 Unidades:  Métrico    Ingés   Ambas
Diario Semanal Mensual Anual
  Máxima: Mínima: Promedio:
Temperatura: 32.7 °C 24.1 °C 28.2 °C
Punto de rocio: 23.8 °C 15.3 °C 20.1 °C
Humedad: 88% 40.4% 63%
Velocidad viento: 20.9km/h 0km/h 9.9km/h
Racha viento: 40.2km/h - -
Viento- - ESE
Presión: 1013.0 hPa 1010.2 hPa -
Precipitación: 0.0 mm    
 
 
Tabla de datos para Agosto 19, 2019
Hora Temperatura Punto de rocio Presión Viento Velocidad viento Racha viento Humedad Intensidad lluvia(por hora) Nubes
00:04 26.8 °C 22.6 °C 1010.7 hPa NE 9.5 km/h 14.5 km/h 77.8% 0.0 mm
00:09 26.8 °C 22.8 °C 1010.7 hPa NE 9.1 km/h 11.3 km/h 78.7% 0.0 mm
00:14 26.8 °C 22.9 °C 1010.7 hPa NNE 7.6 km/h 13 km/h 79.4% 0.0 mm
00:19 26.7 °C 23 °C 1010.8 hPa NE 7 km/h 12.9 km/h 80% 0.0 mm
00:24 26.7 °C 23.1 °C 1010.8 hPa North 5 km/h 9.7 km/h 80.6% 0.0 mm
00:29 26.7 °C 23.2 °C 1010.8 hPa NE 5.2 km/h 13 km/h 81% 0.0 mm
00:34 26.6 °C 23.3 °C 1010.9 hPa NNE 5.8 km/h 13 km/h 81.9% 0.0 mm
00:39 26.6 °C 23.3 °C 1010.9 hPa NE 5.8 km/h 11.3 km/h 82.1% 0.0 mm
00:44 26.5 °C 23.4 °C 1010.9 hPa NE 5.8 km/h 10 km/h 83% 0.0 mm
00:49 26.4 °C 23.4 °C 1010.9 hPa NE 5.9 km/h 11.1 km/h 83.6% 0.0 mm
00:54 26.3 °C 23.5 °C 1010.9 hPa NE 6.5 km/h 11.3 km/h 84.5% 0.0 mm
00:59 26.2 °C 23.5 °C 1010.9 hPa NE 6.5 km/h 11.1 km/h 85% 0.0 mm
01:04 26.2 °C 23.6 °C 1010.9 hPa NE 6.5 km/h 11.3 km/h 86% 0.0 mm
01:09 26.1 °C 23.6 °C 1010.9 hPa NE 6.3 km/h 11.3 km/h 86.3% 0.0 mm
01:14 26.1 °C 23.8 °C 1010.9 hPa NE 5.8 km/h 9.5 km/h 87% 0.0 mm
01:19 26 °C 23.6 °C 1010.9 hPa NE 5.8 km/h 9.7 km/h 87% 0.0 mm
01:24 25.9 °C 23.6 °C 1010.9 hPa NNE 5.8 km/h 9.7 km/h 87.2% 0.0 mm
01:29 25.9 °C 23.8 °C 1010.9 hPa NNO 5.4 km/h 8.4 km/h 88% 0.0 mm
01:34 25.9 °C 23.8 °C 1011.1 hPa NO 3.9 km/h 8 km/h 88% 0.0 mm
01:39 25.9 °C 23.8 °C 1011.1 hPa NNO 4.1 km/h 9.3 km/h 88% 0.0 mm
01:44 25.9 °C 23.8 °C 1011.1 hPa NO 5 km/h 9.7 km/h 88% 0.0 mm
01:49 25.8 °C 23.7 °C 1011.2 hPa NO 4.7 km/h 8 km/h 87.9% 0.0 mm
01:54 25.8 °C 23.4 °C 1011.2 hPa NO 3.9 km/h 8 km/h 87% 0.0 mm
01:59 25.8 °C 23.5 °C 1011.2 hPa Este 3.4 km/h 7.4 km/h 87% 0.0 mm
02:04 25.9 °C 23.6 °C 1011.2 hPa ESE 2.2 km/h 8 km/h 87% 0.0 mm
02:09 25.9 °C 23.6 °C 1011.0 hPa ESE 2.9 km/h 8 km/h 87% 0.0 mm
02:14 25.9 °C 23.6 °C 1011.0 hPa SE 5 km/h 8 km/h 87% 0.0 mm
02:19 25.9 °C 23.6 °C 1011.0 hPa SE 4.6 km/h 8 km/h 87% 0.0 mm
02:24 25.9 °C 23.6 °C 1010.8 hPa SE 3.2 km/h 8 km/h 87% 0.0 mm
02:29 25.9 °C 23.6 °C 1010.8 hPa SE 3.4 km/h 8 km/h 87% 0.0 mm
02:34 25.9 °C 23.5 °C 1010.8 hPa Sur 3.9 km/h 8 km/h 87% 0.0 mm
02:39 25.9 °C 23.6 °C 1010.8 hPa OSO 3.7 km/h 6.4 km/h 87% 0.0 mm
02:44 25.9 °C 23.6 °C 1010.8 hPa SO 3.2 km/h 6.4 km/h 87% 0.0 mm
02:49 25.9 °C 23.6 °C 1010.8 hPa Sur 2.4 km/h 3.7 km/h 87% 0.0 mm
02:54 25.9 °C 23.6 °C 1010.7 hPa Calm     87% 0.0 mm
02:59 25.8 °C 23.5 °C 1010.7 hPa Calm     87% 0.0 mm
03:04 25.8 °C 23.4 °C 1010.7 hPa Calm     87% 0.0 mm
03:09 25.8 °C 23.4 °C 1010.6 hPa Calm   2.9 km/h 86.9% 0.0 mm
03:14 25.8 °C 23.3 °C 1010.6 hPa Calm   3.7 km/h 86% 0.0 mm
03:19 25.8 °C 23.3 °C 1010.6 hPa Calm   4.7 km/h 86% 0.0 mm
03:24 25.9 °C 23.4 °C 1010.6 hPa Calm   5.6 km/h 86% 0.0 mm
03:29 25.9 °C 23.4 °C 1010.6 hPa OSO 0.7 km/h 5 km/h 86% 0.0 mm
03:34 25.9 °C 23.3 °C 1010.6 hPa ONO 3.2 km/h 5.6 km/h 85.5% 0.0 mm
03:39 25.8 °C 23.2 °C 1010.5 hPa ONO 3 km/h 5.6 km/h 85.3% 0.0 mm
03:44 25.8 °C 22.9 °C 1010.5 hPa SSO 2.2 km/h 5.8 km/h 84.1% 0.0 mm
03:49 25.5 °C 21.9 °C 1010.5 hPa Sur 2.4 km/h 7.4 km/h 80.3% 0.0 mm
03:54 25.3 °C 21 °C 1010.4 hPa Sur 2.9 km/h 8 km/h 76.8% 0.0 mm
03:59 25.3 °C 20.3 °C 1010.4 hPa SSO 3.2 km/h 8.4 km/h 74% 0.0 mm
04:04 25.4 °C 20.2 °C 1010.4 hPa SO 3.9 km/h 8 km/h 73% 0.0 mm
04:09 25.5 °C 19.9 °C 1010.4 hPa SO 4 km/h 8.4 km/h 71.3% 0.0 mm
04:14 25.6 °C 19.7 °C 1010.4 hPa SO 4.7 km/h 9.3 km/h 69.7% 0.0 mm
04:19 25.7 °C 19.4 °C 1010.4 hPa SO 4.7 km/h 9.7 km/h 68.2% 0.0 mm
04:24 25.7 °C 19 °C 1010.3 hPa Sur 4.7 km/h 9.7 km/h 66.7% 0.0 mm
04:29 25.7 °C 18.6 °C 1010.3 hPa Sur 4.7 km/h 8.7 km/h 65.1% 0.0 mm
04:34 25.8 °C 18.5 °C 1010.3 hPa SSO 4.7 km/h 8 km/h 64.3% 0.0 mm
04:39 25.8 °C 18.3 °C 1010.3 hPa SSE 4.7 km/h 8 km/h 63.4% 0.0 mm
04:44 25.8 °C 18.2 °C 1010.3 hPa SSE 4.7 km/h 8.4 km/h 63% 0.0 mm
04:49 25.7 °C 18.1 °C 1010.3 hPa SSE 4.7 km/h 8.4 km/h 63% 0.0 mm
04:54 25.7 °C 18.1 °C 1010.3 hPa SSE 5 km/h 8.4 km/h 63% 0.0 mm
04:59 25.6 °C 18.3 °C 1010.3 hPa Sur 5 km/h 8 km/h 63.9% 0.0 mm
05:04 25.5 °C 18.2 °C 1010.3 hPa SSO 5 km/h 8.4 km/h 64% 0.0 mm
05:09 25.5 °C 18.1 °C 1010.2 hPa SO 4.9 km/h 8 km/h 64% 0.0 mm
05:14 25.4 °C 18.1 °C 1010.2 hPa OSO 4.7 km/h 8 km/h 64% 0.0 mm
05:19 25.4 °C 18.1 °C 1010.2 hPa OSO 4.7 km/h 8 km/h 64% 0.0 mm
05:24 25.3 °C 18.2 °C 1010.2 hPa OSO 4.7 km/h 8 km/h 64.8% 0.0 mm
05:29 25.3 °C 18.2 °C 1010.2 hPa OSO 4.5 km/h 8 km/h 65% 0.0 mm
05:34 25.3 °C 18.2 °C 1010.3 hPa SO 3.9 km/h 7.6 km/h 65% 0.0 mm
05:39 25.3 °C 18.3 °C 1010.3 hPa OSO 4 km/h 8 km/h 65.5% 0.0 mm
05:44 25.2 °C 18.3 °C 1010.3 hPa OSO 4.7 km/h 8 km/h 65.8% 0.0 mm
05:49 25.2 °C 18.2 °C 1010.3 hPa OSO 4.3 km/h 5.8 km/h 65% 0.0 mm
05:54 25.2 °C 18.1 °C 1010.3 hPa OSO 3.2 km/h 6.4 km/h 65% 0.0 mm
05:59 25.1 °C 18.1 °C 1010.3 hPa OSO 3.1 km/h 7.4 km/h 65% 0.0 mm
06:04 25.1 °C 18.1 °C 1010.3 hPa OSO 2.9 km/h 8 km/h 65.2% 0.0 mm
06:09 24.9 °C 18.1 °C 1010.3 hPa OSO 3 km/h 6.4 km/h 66% 0.0 mm
06:14 24.8 °C 18.1 °C 1010.3 hPa OSO 3.2 km/h 6.4 km/h 66% 0.0 mm
06:19 24.8 °C 18.2 °C 1010.3 hPa Sur 3.2 km/h 7.6 km/h 66.6% 0.0 mm
06:24 24.7 °C 18.2 °C 1010.3 hPa SE 3.2 km/h 9.3 km/h 67.5% 0.0 mm
06:29 24.4 °C 18.2 °C 1010.3 hPa SSE 3.6 km/h 9.7 km/h 68% 0.0 mm
06:34 24.3 °C 18 °C 1010.3 hPa SSE 5 km/h 8 km/h 68% 0.0 mm
06:39 24.3 °C 18 °C 1010.3 hPa Sur 5 km/h 8 km/h 68% 0.0 mm
06:44 24.3 °C 18 °C 1010.3 hPa Sur 5 km/h 10 km/h 68% 0.0 mm
06:49 24.3 °C 17.9 °C 1010.3 hPa Sur 5.3 km/h 11.1 km/h 67.3% 0.0 mm
06:54 24.4 °C 18 °C 1010.3 hPa SSE 6.5 km/h 11.3 km/h 67.4% 0.0 mm
06:59 24.4 °C 18 °C 1010.3 hPa SSE 6.6 km/h 11.3 km/h 67.4% 0.0 mm
07:04 24.3 °C 18 °C 1010.4 hPa Sur 6.9 km/h 11.3 km/h 68.2% 0.0 mm
07:09 24.2 °C 18.1 °C 1010.4 hPa Sur 7.1 km/h 11.3 km/h 69% 0.0 mm
07:14 24.1 °C 18.1 °C 1010.4 hPa SSO 7.6 km/h 9.7 km/h 69% 0.0 mm
07:19 24.1 °C 18.1 °C 1010.5 hPa SO 7 km/h 9.7 km/h 69% 0.0 mm
07:24 24.2 °C 18 °C 1010.5 hPa Oeste 5 km/h 8 km/h 68.5% 0.0 mm
07:29 24.2 °C 17.7 °C 1010.5 hPa OSO 4.7 km/h 8 km/h 67.2% 0.0 mm
07:34 24.2 °C 17.7 °C 1010.5 hPa SO 3.9 km/h 9.3 km/h 67% 0.0 mm
07:39 24.3 °C 17.6 °C 1010.5 hPa SO 4.1 km/h 9.7 km/h 66.1% 0.0 mm
07:44 24.4 °C 17.6 °C 1010.5 hPa SSO 5 km/h 8 km/h 66% 0.0 mm
07:49 24.5 °C 17.7 °C 1010.6 hPa SSO 4.9 km/h 8 km/h 66% 0.0 mm
07:54 24.6 °C 18 °C 1010.6 hPa SSO 4.7 km/h 8 km/h 66.4% 0.0 mm
07:59 24.7 °C 18.2 °C 1010.6 hPa SSO 4.4 km/h 8.7 km/h 67% 0.0 mm
08:04 24.7 °C 17.9 °C 1010.6 hPa OSO 3.9 km/h 9.7 km/h 66% 0.0 mm
08:09 24.8 °C 17.8 °C 1010.6 hPa OSO 4.1 km/h 9.7 km/h 65.1% 0.0 mm
08:14 24.8 °C 17.7 °C 1010.6 hPa OSO 5 km/h 8 km/h 64.7% 0.0 mm
08:19 24.9 °C 17.6 °C 1010.7 hPa SO 4.9 km/h 9.3 km/h 64% 0.0 mm
08:24 25.1 °C 17.5 °C 1010.7 hPa OSO 4.7 km/h 9.7 km/h 63.1% 0.0 mm
08:29 25.2 °C 17.4 °C 1010.7 hPa OSO 4.9 km/h 10 km/h 62.2% 0.0 mm
08:34 25.2 °C 17.2 °C 1010.8 hPa OSO 5.8 km/h 10 km/h 61.1% 0.0 mm
08:39 25.3 °C 17.2 °C 1010.8 hPa SO 5.6 km/h 9.7 km/h 61% 0.0 mm
08:44 25.4 °C 17.3 °C 1010.8 hPa Sur 5 km/h 9.3 km/h 60.6% 0.0 mm
08:49 25.6 °C 17.1 °C 1010.8 hPa SSO 5 km/h 10 km/h 59.4% 0.0 mm
08:54 25.7 °C 17.3 °C 1010.8 hPa Sur 5 km/h 9.7 km/h 60.1% 0.0 mm
08:59 25.8 °C 17.6 °C 1010.8 hPa SSE 4.9 km/h 10 km/h 60.6% 0.0 mm
09:04 25.7 °C 17.1 °C 1011.0 hPa Sur 4.6 km/h 11.1 km/h 58.7% 0.0 mm
09:09 25.7 °C 16.9 °C 1011.0 hPa SSO 5.3 km/h 12.2 km/h 58% 0.0 mm
09:14 25.8 °C 16.5 °C 1011.0 hPa SSO 7.6 km/h 13 km/h 56.6% 0.0 mm
09:19 25.9 °C 16.2 °C 1011.2 hPa SO 7.6 km/h 12.9 km/h 54.9% 0.0 mm
09:24 26.2 °C 16.1 °C 1011.2 hPa SSO 7.6 km/h 11.1 km/h 53.8% 0.0 mm
09:29 26.3 °C 15.9 °C 1011.2 hPa SSO 7.4 km/h 11.3 km/h 52.9% 0.0 mm
09:34 26.4 °C 15.8 °C 1011.3 hPa SSO 6.9 km/h 13 km/h 52% 0.0 mm
09:39 26.6 °C 15.9 °C 1011.3 hPa SSO 7.3 km/h 12.9 km/h 52% 0.0 mm
09:44 26.7 °C 16 °C 1011.3 hPa SSO 8.4 km/h 13 km/h 52% 0.0 mm
09:49 26.8 °C 16.1 °C 1011.4 hPa SSO 8.1 km/h 13 km/h 51.8% 0.0 mm
09:54 27 °C 16 °C 1011.4 hPa SSO 6.9 km/h 13 km/h 51.2% 0.0 mm
09:59 27.1 °C 16 °C 1011.4 hPa SSO 7.3 km/h 13 km/h 50.7% 0.0 mm
10:04 27.3 °C 15.9 °C 1011.4 hPa SSO 8.4 km/h 11.3 km/h 49.9% 0.0 mm
10:09 27.6 °C 15.9 °C 1011.4 hPa SSO 8 km/h 11.1 km/h 49.1% 0.0 mm
10:14 27.8 °C 16.1 °C 1011.4 hPa SSO 6.9 km/h 13 km/h 49% 0.0 mm
10:19 28 °C 16.1 °C 1011.5 hPa SSO 7.3 km/h 14.8 km/h 48.5% 0.0 mm
10:24 28.3 °C 16 °C 1011.5 hPa SSO 8.4 km/h 14.5 km/h 47.4% 0.0 mm
10:29 28.6 °C 15.6 °C 1011.5 hPa OSO 7.8 km/h 11.3 km/h 45.3% 0.0 mm
10:34 28.9 °C 15.4 °C 1011.6 hPa OSO 5.8 km/h 9.7 km/h 44% 0.0 mm
10:39 29.3 °C 15.3 °C 1011.6 hPa Oeste 5.3 km/h 9.7 km/h 42.6% 0.0 mm
10:44 29.7 °C 15.4 °C 1011.6 hPa Sur 3.9 km/h 8.7 km/h 41.9% 0.0 mm
10:49 30.2 °C 15.5 °C 1011.6 hPa NE 3.9 km/h 10 km/h 41% 0.0 mm
10:54 30.4 °C 15.4 °C 1011.6 hPa ENE 3.9 km/h 11.9 km/h 40.4% 0.0 mm
10:59 30.4 °C 15.5 °C 1011.6 hPa NE 4.7 km/h 13 km/h 40.4% 0.0 mm
11:04 30.3 °C 15.7 °C 1011.9 hPa NE 6.9 km/h 14.8 km/h 41.4% 0.0 mm
11:09 30.3 °C 15.9 °C 1011.9 hPa NE 7.3 km/h 14.5 km/h 42% 0.0 mm
11:14 30.3 °C 16.3 °C 1011.9 hPa NNE 8.4 km/h 16.7 km/h 42.9% 0.0 mm
11:19 30.3 °C 16.4 °C 1012.0 hPa NE 8.7 km/h 16.1 km/h 43% 0.0 mm
11:24 30.3 °C 16.8 °C 1012.0 hPa NE 10 km/h 20.4 km/h 44.2% 0.0 mm
11:29 30.3 °C 17.1 °C 1012.0 hPa NE 10 km/h 20.9 km/h 45.2% 0.0 mm
11:34 30.3 °C 16.4 °C 1012.0 hPa NE 10 km/h 20.9 km/h 43.2% 0.0 mm
11:39 30.3 °C 16.1 °C 1012.0 hPa NE 10.8 km/h 22.2 km/h 42.3% 0.0 mm
11:44 30.5 °C 16.4 °C 1012.0 hPa NE 13.7 km/h 22.5 km/h 42.9% 0.0 mm
11:49 30.8 °C 16.8 °C 1012.0 hPa NE 13.3 km/h 20.9 km/h 43% 0.0 mm
11:54 30.9 °C 17.2 °C 1011.9 hPa NE 12.2 km/h 24.5 km/h 43.6% 0.0 mm
11:59 31.1 °C 17 °C 1011.9 hPa NE 12.5 km/h 24.1 km/h 42.9% 0.0 mm
12:04 31.2 °C 17.3 °C 1011.9 hPa NE 13 km/h 24.1 km/h 43.5% 0.0 mm
12:09 31.2 °C 17.4 °C 1011.8 hPa NE 13.6 km/h 25.9 km/h 43.8% 0.0 mm
12:14 31.2 °C 17.7 °C 1011.8 hPa NE 15.6 km/h 25.7 km/h 44.5% 0.0 mm
12:19 31.3 °C 18 °C 1011.9 hPa NE 15.2 km/h 24.5 km/h 45.1% 0.0 mm
12:24 31.3 °C 17.1 °C 1011.9 hPa NE 14 km/h 24.1 km/h 42.8% 0.0 mm
12:29 31.4 °C 17.7 °C 1011.9 hPa NE 14 km/h 24.1 km/h 43.9% 0.0 mm
12:34 31.5 °C 18.2 °C 1011.9 hPa ENE 14 km/h 24.1 km/h 45.2% 0.0 mm
12:39 31.7 °C 18.9 °C 1011.9 hPa NE 13.8 km/h 24.1 km/h 46.6% 0.0 mm
12:44 31.8 °C 19.3 °C 1011.9 hPa ENE 13 km/h 25.9 km/h 47.7% 0.0 mm
12:49 31.8 °C 19.9 °C 1012.0 hPa ENE 13.2 km/h 25.7 km/h 49.3% 0.0 mm
12:54 31.9 °C 20.4 °C 1012.0 hPa NE 13.7 km/h 24.1 km/h 50.5% 0.0 mm
12:59 32.1 °C 20.5 °C 1012.0 hPa ENE 13.5 km/h 26.2 km/h 50.4% 0.0 mm
13:04 32.1 °C 20.6 °C 1012.0 hPa NE 13 km/h 27.8 km/h 50.9% 0.0 mm
13:09 32 °C 20.5 °C 1012.0 hPa ENE 13 km/h 27.4 km/h 50.7% 0.0 mm
13:14 32.3 °C 20.3 °C 1012.0 hPa ENE 13 km/h 24.1 km/h 49.4% 0.0 mm
13:19 32.4 °C 20.9 °C 1012.0 hPa ENE 13 km/h 22.5 km/h 50.8% 0.0 mm
13:24 32.5 °C 20.6 °C 1011.9 hPa NE 13 km/h 28.2 km/h 49.5% 0.0 mm
13:29 32.6 °C 20.5 °C 1011.9 hPa NE 13.3 km/h 29.8 km/h 49.1% 0.0 mm
13:34 32.3 °C 19.8 °C 1011.9 hPa NE 14 km/h 30.6 km/h 47.9% 0.0 mm
13:39 32.2 °C 19.4 °C 1011.9 hPa NE 15 km/h 31.7 km/h 46.8% 0.0 mm
13:44 32.2 °C 18.7 °C 1011.9 hPa NE 18.4 km/h 32.2 km/h 44.6% 0.0 mm
13:49 32.3 °C 18.9 °C 1011.9 hPa NE 18.3 km/h 29.6 km/h 44.9% 0.0 mm
13:54 32.3 °C 19.3 °C 1011.7 hPa NE 18 km/h 33.3 km/h 46.1% 0.0 mm
13:59 32.5 °C 19.7 °C 1011.7 hPa ENE 17.6 km/h 33.8 km/h 46.8% 0.0 mm
14:04 32.7 °C 19.4 °C 1011.7 hPa NE 16.4 km/h 27.8 km/h 45.7% 0.0 mm
14:09 32.5 °C 19.2 °C 1011.6 hPa NE 16.3 km/h 27.8 km/h 45.4% 0.0 mm
14:14 32.4 °C 19.1 °C 1011.6 hPa NE 16.1 km/h 28.2 km/h 45.5% 0.0 mm
14:19 32.3 °C 19 °C 1011.6 hPa NE 16.6 km/h 32.3 km/h 45.4% 0.0 mm
14:24 32.3 °C 18.8 °C 1011.5 hPa NE 18 km/h 33.8 km/h 44.9% 0.0 mm
14:29 32.3 °C 18.8 °C 1011.5 hPa NE 18.8 km/h 35.9 km/h 45% 0.0 mm
14:34 32.3 °C 19.3 °C 1011.5 hPa NE 20.9 km/h 35.4 km/h 46.4% 0.0 mm
14:39 32.2 °C 19.6 °C 1011.5 hPa NE 20.9 km/h 35.4 km/h 47.3% 0.0 mm
14:44 32.2 °C 19.6 °C 1011.5 hPa NE 20.9 km/h 33.8 km/h 47.7% 0.0 mm
14:49 32.2 °C 19.6 °C 1011.5 hPa NE 20.3 km/h 32.2 km/h 47.4% 0.0 mm
14:54 32.3 °C 19.4 °C 1011.4 hPa ENE 18.4 km/h 30.9 km/h 46.6% 0.0 mm
14:59 32.3 °C 18.9 °C 1011.4 hPa NE 17.8 km/h 30.6 km/h 45% 0.0 mm
15:04 32.5 °C 19.5 °C 1011.4 hPa NE 16.4 km/h 33.3 km/h 46.4% 0.0 mm
15:09 32.5 °C 20.1 °C 1011.4 hPa NE 17 km/h 33.8 km/h 48% 0.0 mm
15:14 32.3 °C 20.3 °C 1011.4 hPa NE 19 km/h 39.6 km/h 49.1% 0.0 mm
15:19 32.2 °C 20.1 °C 1011.4 hPa NE 19.4 km/h 40.2 km/h 49% 0.0 mm
15:24 32.2 °C 20.2 °C 1011.4 hPa NE 20.9 km/h 37 km/h 49.1% 0.0 mm
15:29 32.2 °C 20 °C 1011.4 hPa NE 20.2 km/h 35.4 km/h 48.5% 0.0 mm
15:34 32.3 °C 20.2 °C 1011.4 hPa NE 18 km/h 35.2 km/h 49% 0.0 mm
15:39 32.2 °C 20 °C 1011.4 hPa NE 18.3 km/h 35.4 km/h 48.6% 0.0 mm
15:44 32.2 °C 20.6 °C 1011.4 hPa NE 19 km/h 34.3 km/h 50.7% 0.0 mm
15:49 32.1 °C 20.8 °C 1011.4 hPa NE 19 km/h 33.8 km/h 51.4% 0.0 mm
15:54 32.1 °C 20.3 °C 1011.4 hPa NE 19 km/h 29.1 km/h 49.7% 0.0 mm
15:59 32 °C 20 °C 1011.4 hPa NE 18.7 km/h 29.6 km/h 49.1% 0.0 mm
16:04 32 °C 19.7 °C 1011.4 hPa NE 18 km/h 30.6 km/h 48.4% 0.0 mm
16:09 32.2 °C 20 °C 1011.4 hPa ENE 17.6 km/h 30.6 km/h 48.7% 0.0 mm
16:14 32.3 °C 20 °C 1011.4 hPa ENE 16.1 km/h 25.9 km/h 48.5% 0.0 mm
16:16 32.3 °C 19.8 °C 1011.4 hPa NE 16.1 km/h 26.2 km/h 47.8% 0.0 mm
16:39 32.4 °C 17.9 °C 1011.2 hPa ENE 14.4 km/h 25.6 km/h 42.2% 0.0 mm
16:44 32.3 °C 17.6 °C 1011.2 hPa NE 13 km/h 31.5 km/h 41.6% 0.0 mm
16:49 32.2 °C 17.5 °C 1011.2 hPa NE 14.6 km/h 33.3 km/h 41.7% 0.0 mm
16:54 32.2 °C 17.7 °C 1011.1 hPa NE 19.8 km/h 35.2 km/h 42.3% 0.0 mm
16:59 32.2 °C 17.5 °C 1011.1 hPa NE 19.4 km/h 35.4 km/h 41.5% 0.0 mm
17:04 32.3 °C 17.7 °C 1011.1 hPa NE 18.4 km/h 30.6 km/h 41.8% 0.0 mm
17:09 32.3 °C 17.7 °C 1011.0 hPa NE 18.4 km/h 29.8 km/h 42% 0.0 mm
17:14 32.2 °C 18.1 °C 1011.0 hPa NE 18.4 km/h 35.9 km/h 42.9% 0.0 mm
17:19 32.3 °C 18.5 °C 1011.0 hPa NE 18 km/h 35.4 km/h 43.8% 0.0 mm
17:24 32.3 °C 18.9 °C 1010.9 hPa NE 16.4 km/h 33.8 km/h 45% 0.0 mm
17:29 32.2 °C 19 °C 1010.9 hPa ENE 16.3 km/h 33.3 km/h 45.9% 0.0 mm
17:34 32 °C 18.9 °C 1010.9 hPa ENE 16.1 km/h 33.8 km/h 45.7% 0.0 mm
17:39 31.9 °C 18.8 °C 1010.9 hPa NE 16.3 km/h 32.2 km/h 45.8% 0.0 mm
17:44 31.8 °C 19.3 °C 1010.9 hPa NE 17.2 km/h 32.2 km/h 47.7% 0.0 mm
17:49 31.7 °C 19.6 °C 1010.9 hPa NE 17.2 km/h 31.7 km/h 48.9% 0.0 mm
17:54 31.7 °C 19.4 °C 1010.9 hPa ENE 17.2 km/h 32.2 km/h 48.1% 0.0 mm
17:59 31.7 °C 19.7 °C 1010.9 hPa NE 16.6 km/h 29.6 km/h 49.2% 0.0 mm
18:04 31.6 °C 20 °C 1010.9 hPa NE 14.8 km/h 30.6 km/h 50.3% 0.0 mm
18:09 31.4 °C 20.1 °C 1010.8 hPa NE 15.5 km/h 33.5 km/h 51.1% 0.0 mm
18:14 31.3 °C 20.3 °C 1010.8 hPa ENE 18 km/h 33.8 km/h 52.2% 0.0 mm
18:19 31.2 °C 20.5 °C 1010.8 hPa NE 17.9 km/h 32.2 km/h 53% 0.0 mm
18:24 31 °C 20.7 °C 1010.8 hPa NE 17.2 km/h 30.6 km/h 54.4% 0.0 mm
18:29 31 °C 20.4 °C 1010.8 hPa NE 17.4 km/h 33.3 km/h 53.4% 0.0 mm
18:34 31 °C 20.5 °C 1010.8 hPa NE 18.4 km/h 33.8 km/h 53.7% 0.0 mm
18:39 31.1 °C 20.8 °C 1010.8 hPa NE 17.4 km/h 26.2 km/h 54.5% 0.0 mm
18:44 31 °C 21.3 °C 1010.8 hPa NE 13.7 km/h 30.6 km/h 56.4% 0.0 mm
18:49 30.6 °C 21.6 °C 1010.9 hPa NE 14.7 km/h 31.7 km/h 59% 0.0 mm
18:54 30.5 °C 21.9 °C 1010.9 hPa NE 18.4 km/h 32.2 km/h 60.3% 0.0 mm
18:59 30.4 °C 22 °C 1010.9 hPa NE 18.4 km/h 34.3 km/h 60.7% 0.0 mm
19:04 30.2 °C 22.1 °C 1010.9 hPa NE 18.4 km/h 34.3 km/h 62% 0.0 mm
19:09 30.1 °C 22 °C 1010.9 hPa NE 18.5 km/h 33.8 km/h 62% 0.0 mm
19:14 29.9 °C 22.3 °C 1010.9 hPa NE 19 km/h 33.8 km/h 63.6% 0.0 mm
19:19 29.9 °C 22.2 °C 1010.9 hPa NE 19.2 km/h 33.8 km/h 63.5% 0.0 mm
19:24 29.7 °C 22.4 °C 1010.9 hPa NE 19.8 km/h 32.2 km/h 64.8% 0.0 mm
19:29 29.5 °C 22.4 °C 1010.9 hPa NE 19.8 km/h 32.2 km/h 65.5% 0.0 mm
19:34 29.4 °C 22.5 °C 1011.0 hPa NE 19.8 km/h 32.2 km/h 66.3% 0.0 mm
19:39 29.3 °C 22.5 °C 1011.0 hPa NE 19.2 km/h 29.6 km/h 66.8% 0.0 mm
19:44 29.2 °C 22.6 °C 1011.0 hPa NE 17.2 km/h 29.8 km/h 67.8% 0.0 mm
19:49 29 °C 22.5 °C 1011.3 hPa NE 17.5 km/h 30.6 km/h 68% 0.0 mm
19:54 28.9 °C 22.4 °C 1011.3 hPa NE 18.4 km/h 29.6 km/h 68% 0.0 mm
19:59 28.8 °C 22.6 °C 1011.3 hPa NE 18.3 km/h 33.3 km/h 68.8% 0.0 mm
20:04 28.7 °C 22.5 °C 1011.4 hPa NE 18 km/h 33.8 km/h 69.2% 0.0 mm
20:09 28.8 °C 22.6 °C 1011.4 hPa NE 17.1 km/h 25.6 km/h 69.4% 0.0 mm
20:14 28.7 °C 22.6 °C 1011.4 hPa NE 13.7 km/h 25.9 km/h 69.9% 0.0 mm
20:19 28.6 °C 22.8 °C 1011.6 hPa ENE 13.7 km/h 24.1 km/h 70.8% 0.0 mm
20:24 28.6 °C 22.7 °C 1011.6 hPa NE 14 km/h 22.5 km/h 70.4% 0.0 mm
20:29 28.5 °C 22.7 °C 1011.6 hPa NE 13.4 km/h 20.9 km/h 71% 0.0 mm
20:34 28.4 °C 22.6 °C 1011.7 hPa ENE 11.1 km/h 20.9 km/h 71% 0.0 mm
20:39 28.3 °C 22.7 °C 1011.7 hPa ENE 10.9 km/h 20.4 km/h 71.6% 0.0 mm
20:44 28.2 °C 22.6 °C 1011.7 hPa ENE 10.3 km/h 20.9 km/h 72% 0.0 mm
20:49 28.1 °C 22.6 °C 1011.9 hPa NE 10.3 km/h 20.9 km/h 72% 0.0 mm
20:54 27.9 °C 22.5 °C 1011.9 hPa NE 10.3 km/h 22.5 km/h 72.4% 0.0 mm
20:59 27.8 °C 22.5 °C 1011.9 hPa NE 11.2 km/h 25.9 km/h 73% 0.0 mm
21:04 27.8 °C 22.7 °C 1011.9 hPa NE 13.7 km/h 25.7 km/h 73.7% 0.0 mm
21:09 27.7 °C 22.5 °C 1011.9 hPa NE 13.3 km/h 22.2 km/h 73.1% 0.0 mm
21:14 27.7 °C 22.5 °C 1011.9 hPa NE 11.9 km/h 22.5 km/h 73.3% 0.0 mm
21:19 27.7 °C 22.7 °C 1012.0 hPa NE 12 km/h 22.5 km/h 74% 0.0 mm
21:24 27.6 °C 22.7 °C 1012.0 hPa NE 12.2 km/h 20.9 km/h 74.4% 0.0 mm
21:29 27.6 °C 22.7 °C 1012.0 hPa NE 11.8 km/h 18 km/h 75% 0.0 mm
21:34 27.4 °C 22.7 °C 1012.2 hPa NE 10 km/h 19.3 km/h 75.4% 0.0 mm
21:39 27.4 °C 22.8 °C 1012.2 hPa NE 10 km/h 18.5 km/h 76% 0.0 mm
21:44 27.3 °C 22.8 °C 1012.2 hPa NE 10.3 km/h 20.9 km/h 76.1% 0.0 mm
21:49 27.3 °C 22.7 °C 1012.5 hPa NE 10.7 km/h 20.9 km/h 76.1% 0.0 mm
21:54 27.3 °C 22.8 °C 1012.5 hPa NE 11.9 km/h 16.7 km/h 76.2% 0.0 mm
21:59 27.3 °C 22.7 °C 1012.5 hPa NE 11.4 km/h 20.4 km/h 76% 0.0 mm
22:04 27.2 °C 22.6 °C 1012.5 hPa NE 10 km/h 20.9 km/h 76% 0.0 mm
22:09 27.3 °C 22.7 °C 1012.5 hPa NE 10.2 km/h 19.3 km/h 76% 0.0 mm
22:14 27.3 °C 22.7 °C 1012.5 hPa NE 11.1 km/h 20.4 km/h 76% 0.0 mm
22:19 27.3 °C 22.7 °C 1012.7 hPa NE 10.9 km/h 20.9 km/h 76% 0.0 mm
22:24 27.3 °C 22.7 °C 1012.7 hPa NE 10.3 km/h 17.7 km/h 76% 0.0 mm
22:29 27.3 °C 22.7 °C 1012.7 hPa NE 10 km/h 14.8 km/h 76% 0.0 mm
22:34 27.3 °C 22.7 °C 1012.8 hPa NE 8.7 km/h 14.8 km/h 76.1% 0.0 mm
22:39 27.2 °C 22.8 °C 1012.8 hPa NNE 8.6 km/h 13 km/h 77% 0.0 mm
22:44 27.1 °C 22.9 °C 1012.8 hPa NE 8.4 km/h 13.7 km/h 77.8% 0.0 mm
22:49 27.1 °C 22.9 °C 1012.8 hPa NE 8.2 km/h 14.5 km/h 78% 0.0 mm
22:54 27.1 °C 23 °C 1012.8 hPa NE 7.6 km/h 11.3 km/h 78.4% 0.0 mm
22:59 27.1 °C 23.2 °C 1012.8 hPa NE 7.1 km/h 9.7 km/h 79% 0.0 mm
23:04 27.1 °C 23.2 °C 1012.9 hPa NE 5.8 km/h 10 km/h 79% 0.0 mm
23:09 27 °C 23.1 °C 1012.9 hPa NNE 5.9 km/h 10 km/h 79% 0.0 mm
23:14 26.9 °C 23.2 °C 1012.9 hPa NNE 6.5 km/h 11.1 km/h 79.9% 0.0 mm
23:19 26.9 °C 23.2 °C 1013.0 hPa NNE 6.6 km/h 13 km/h 80% 0.0 mm
23:24 26.9 °C 23.2 °C 1013.0 hPa NNE 6.9 km/h 12.9 km/h 80% 0.0 mm
23:29 26.9 °C 23.2 °C 1013.0 hPa NNE 6.8 km/h 11.3 km/h 80% 0.0 mm
23:34 26.9 °C 23.2 °C 1013.0 hPa NNE 6.5 km/h 11.1 km/h 80% 0.0 mm
23:39 26.9 °C 23.3 °C 1013.0 hPa NE 6.5 km/h 13 km/h 80.6% 0.0 mm
23:44 26.8 °C 23.3 °C 1013.0 hPa NE 6.5 km/h 13 km/h 81% 0.0 mm
23:49 26.8 °C 23.3 °C 1013.0 hPa NE 6.7 km/h 13 km/h 81% 0.0 mm
23:54 26.8 °C 23.3 °C 1013.0 hPa NE 7.6 km/h 12.9 km/h 81% 0.0 mm
23:59 26.7 °C 23.2 °C 1013.0 hPa NE 7.3 km/h 11.1 km/h 81% 0.0 mm
Murcia-Puente Tocinos, Espa?a
Compliments of Weather Underground - 3 mb

La estación de MeteoMurcia.com, publica sus datos en los siguientes proyectos:

Weather Underground PWS IMURCIAP2 Meteoclimatic www.awekas.at

Web Analytics

Clicky